createdAt,value
2022-08-30T00:01:03.630Z,101691.53
2022-08-30T00:03:33.771Z,101689.09
2022-08-30T00:06:02.618Z,101693.72
2022-08-30T00:08:30.573Z,101689.41
2022-08-30T00:10:58.544Z,101692.63
2022-08-30T00:13:26.280Z,101695.25
2022-08-30T00:15:55.381Z,101691.13
2022-08-30T00:18:24.537Z,101693.25
2022-08-30T00:20:53.315Z,101701.53
2022-08-30T00:23:21.416Z,101701.41
2022-08-30T00:25:49.217Z,101698.47
2022-08-30T00:28:17.349Z,101701.28
2022-08-30T00:30:45.602Z,101698.28
2022-08-30T00:33:15.559Z,101693.25
2022-08-30T00:35:44.095Z,101699.19
2022-08-30T00:38:13.179Z,101693.22
2022-08-30T00:40:44.128Z,101705.72
2022-08-30T00:43:15.427Z,101710.38
2022-08-30T00:45:43.661Z,101711.19
2022-08-30T00:48:11.377Z,101712.53
2022-08-30T00:50:43.636Z,101712.53
2022-08-30T00:53:14.624Z,101712.66
2022-08-30T00:55:43.118Z,101720.59
2022-08-30T00:58:16.556Z,101713.97
2022-08-30T01:00:44.789Z,101718.63
2022-08-30T01:03:12.578Z,101720.56
2022-08-30T01:05:42.716Z,101714.00
2022-08-30T01:08:10.805Z,101721.41
2022-08-30T01:10:39.486Z,101721.38
2022-08-30T01:13:07.353Z,101722.19
2022-08-30T01:15:35.675Z,101728.44
2022-08-30T01:18:07.705Z,101729.25
2022-08-30T01:20:39.406Z,101731.19
2022-08-30T01:23:12.965Z,101727.09
2022-08-30T01:25:42.327Z,101727.78
2022-08-30T01:28:12.130Z,101724.66
2022-08-30T01:30:40.287Z,101721.63
2022-08-30T01:33:08.903Z,101716.47
2022-08-30T01:35:43.145Z,101721.19
2022-08-30T01:38:13.108Z,101720.13
2022-08-30T01:40:40.933Z,101722.22
2022-08-30T01:43:09.601Z,101719.19
2022-08-30T01:45:37.425Z,101721.13
2022-08-30T01:48:06.665Z,101727.16
2022-08-30T01:50:35.236Z,101722.75
2022-08-30T01:53:05.444Z,101718.38
2022-08-30T01:55:34.759Z,101728.22
2022-08-30T01:58:04.965Z,101717.66
2022-08-30T02:00:32.736Z,101711.34
2022-08-30T02:03:00.455Z,101708.72
2022-08-30T02:05:28.220Z,101705.41
2022-08-30T02:07:56.517Z,101701.63
2022-08-30T02:10:24.436Z,101708.09
2022-08-30T02:12:53.630Z,101702.53
2022-08-30T02:15:21.512Z,101703.38
2022-08-30T02:17:49.242Z,101699.44
2022-08-30T02:20:17.070Z,101705.19
2022-08-30T02:22:49.219Z,101700.31
2022-08-30T02:25:21.157Z,101705.66
2022-08-30T02:27:49.365Z,101705.13
2022-08-30T02:30:18.645Z,101702.41
2022-08-30T02:32:46.392Z,101702.28
2022-08-30T02:35:14.175Z,101697.22
2022-08-30T02:37:41.904Z,101707.19
2022-08-30T02:40:11.239Z,101710.59
2022-08-30T02:42:39.079Z,101701.34
2022-08-30T02:45:07.704Z,101707.34
2022-08-30T02:47:37.107Z,101714.31
2022-08-30T02:50:05.381Z,101704.19
2022-08-30T02:52:33.327Z,101711.91
2022-08-30T02:55:03.405Z,101712.63
2022-08-30T02:57:31.141Z,101711.56
2022-08-30T02:59:59.384Z,101702.78
2022-08-30T03:02:27.209Z,101702.00
2022-08-30T03:04:57.442Z,101708.25
2022-08-30T03:07:25.511Z,101705.50
2022-08-30T03:09:53.675Z,101705.47
2022-08-30T03:12:21.912Z,101706.31
2022-08-30T03:14:49.690Z,101712.84
2022-08-30T03:17:17.676Z,101712.56
2022-08-30T03:19:46.081Z,101718.59
2022-08-30T03:22:15.167Z,101716.44
2022-08-30T03:24:42.916Z,101718.66
2022-08-30T03:27:10.669Z,101717.66
2022-08-30T03:29:39.141Z,101709.66
2022-08-30T03:32:06.975Z,101713.16
2022-08-30T03:34:34.768Z,101708.53
2022-08-30T03:37:04.600Z,101709.94
2022-08-30T03:39:33.840Z,101719.97
2022-08-30T03:42:01.660Z,101711.81
2022-08-30T03:44:30.841Z,101718.03
2022-08-30T03:46:58.596Z,101726.03
2022-08-30T03:49:26.288Z,101716.44
2022-08-30T03:51:54.109Z,101718.38
2022-08-30T03:54:24.235Z,101724.38
2022-08-30T03:56:53.928Z,101717.63
2022-08-30T03:59:21.722Z,101715.34
2022-08-30T04:01:49.542Z,101715.09
2022-08-30T04:04:20.875Z,101722.88
2022-08-30T04:06:49.530Z,101709.66
2022-08-30T04:09:17.486Z,101711.56
2022-08-30T04:11:45.216Z,101716.81
2022-08-30T04:14:14.280Z,101712.69
2022-08-30T04:16:42.130Z,101714.00
2022-08-30T04:19:09.965Z,101706.06
2022-08-30T04:21:43.147Z,101710.50
2022-08-30T04:24:11.262Z,101719.19
2022-08-30T04:26:39.332Z,101715.75
2022-08-30T04:29:07.452Z,101718.78
2022-08-30T04:31:36.587Z,101719.78
2022-08-30T04:34:04.479Z,101721.94
2022-08-30T04:36:32.245Z,101724.38
2022-08-30T04:38:59.975Z,101728.00
2022-08-30T04:41:27.794Z,101732.59
2022-08-30T04:43:55.508Z,101732.94
2022-08-30T04:46:23.208Z,101727.19
2022-08-30T04:48:52.297Z,101731.72
2022-08-30T04:51:20.100Z,101729.06
2022-08-30T04:53:47.935Z,101726.91
2022-08-30T04:56:17.623Z,101731.81
2022-08-30T04:58:46.020Z,101735.56
2022-08-30T05:01:15.159Z,101732.31
2022-08-30T05:03:46.939Z,101730.63
2022-08-30T05:06:16.504Z,101731.56
2022-08-30T05:08:46.092Z,101741.59
2022-08-30T05:11:15.278Z,101742.69
2022-08-30T05:13:43.540Z,101742.13
2022-08-30T05:16:13.209Z,101745.97
2022-08-30T05:18:40.929Z,101745.94
2022-08-30T05:21:13.449Z,101753.28
2022-08-30T05:23:42.760Z,101752.47
2022-08-30T05:26:12.461Z,101747.31
2022-08-30T05:28:40.534Z,101754.41
2022-08-30T05:31:15.582Z,101751.97
2022-08-30T05:33:43.434Z,101752.56
2022-08-30T05:36:12.200Z,101761.81
2022-08-30T05:38:40.028Z,101758.00
2022-08-30T05:41:11.304Z,101745.19
2022-08-30T05:43:39.740Z,101759.59
2022-08-30T05:46:09.138Z,101755.78
2022-08-30T05:48:37.653Z,101762.03
2022-08-30T05:51:07.943Z,101763.97
2022-08-30T05:53:36.173Z,101770.81
2022-08-30T05:56:06.172Z,101762.38
2022-08-30T05:58:35.473Z,101759.63
2022-08-30T06:01:05.656Z,101764.75
2022-08-30T06:03:34.064Z,101767.47
2022-08-30T06:06:02.346Z,101769.97
2022-08-30T06:08:30.444Z,101770.22
2022-08-30T06:10:58.152Z,101768.06
2022-08-30T06:13:25.844Z,101772.16
2022-08-30T06:15:54.945Z,101770.28
2022-08-30T06:18:28.554Z,101770.28
2022-08-30T06:20:56.616Z,101774.97
2022-08-30T06:23:24.599Z,101774.72
2022-08-30T06:25:52.303Z,101774.97
2022-08-30T06:28:20.077Z,101772.50
2022-08-30T06:30:47.863Z,101781.50
2022-08-30T06:33:16.879Z,101777.16
2022-08-30T06:35:58.369Z,101775.72
2022-08-30T06:38:27.710Z,101770.59
2022-08-30T06:40:55.419Z,101766.19
2022-08-30T06:43:23.187Z,101774.72
2022-08-30T06:45:50.951Z,101774.97
2022-08-30T06:48:20.275Z,101773.34
2022-08-30T06:50:54.367Z,101771.38
2022-08-30T06:53:22.259Z,101772.75
2022-08-30T06:55:57.726Z,101767.88
2022-08-30T06:58:25.825Z,101771.13
2022-08-30T07:00:53.651Z,101778.16
2022-08-30T07:03:23.238Z,101774.97
2022-08-30T07:05:51.468Z,101769.97
2022-08-30T07:08:19.184Z,101772.75
2022-08-30T07:10:47.364Z,101767.91
2022-08-30T07:13:15.102Z,101770.81
2022-08-30T07:15:44.289Z,101776.91
2022-08-30T07:18:30.144Z,101771.13
2022-08-30T07:20:59.988Z,101773.81
2022-08-30T07:23:27.757Z,101775.41
2022-08-30T07:25:55.559Z,101782.53
2022-08-30T07:28:23.448Z,101774.66
2022-08-30T07:30:51.580Z,101787.25
2022-08-30T07:33:19.475Z,101782.53
2022-08-30T07:35:47.361Z,101783.72
2022-08-30T07:38:16.680Z,101789.97
2022-08-30T07:40:44.776Z,101789.06
2022-08-30T07:43:12.522Z,101785.88
2022-08-30T07:45:40.384Z,101793.81
2022-08-30T07:48:08.121Z,101793.50
2022-08-30T07:50:35.856Z,101793.78
2022-08-30T07:53:04.776Z,101794.63
2022-08-30T07:55:35.940Z,101786.66
2022-08-30T07:58:04.128Z,101797.59
2022-08-30T08:00:31.884Z,101790.47
2022-08-30T08:02:59.625Z,101799.47
2022-08-30T08:05:27.367Z,101790.44
2022-08-30T08:07:55.072Z,101796.19
2022-08-30T08:10:22.925Z,101800.53
2022-08-30T08:12:52.221Z,101805.72
2022-08-30T08:15:20.133Z,101799.69
2022-08-30T08:17:47.854Z,101807.28
2022-08-30T08:20:16.001Z,101798.91
2022-08-30T08:22:43.737Z,101798.03
2022-08-30T08:25:11.501Z,101801.31
2022-08-30T08:27:39.215Z,101803.00
2022-08-30T08:30:09.611Z,101812.28
2022-08-30T08:32:37.383Z,101807.66
2022-08-30T08:35:05.654Z,101808.78
2022-08-30T08:37:33.367Z,101808.16
2022-08-30T08:40:03.593Z,101815.28
2022-08-30T08:42:37.925Z,101811.19
2022-08-30T08:45:11.531Z,101809.28
2022-08-30T08:47:41.533Z,101809.81
2022-08-30T08:50:13.233Z,101809.28
2022-08-30T08:53:10.653Z,101814.16
2022-08-30T08:55:43.995Z,101816.88
2022-08-30T08:58:18.691Z,101818.69
2022-08-30T09:00:47.745Z,101818.44
2022-08-30T09:03:16.721Z,101817.03
2022-08-30T09:05:45.340Z,101812.72
2022-08-30T09:08:16.075Z,101821.97
2022-08-30T09:10:51.071Z,101816.44
2022-08-30T09:13:19.549Z,101816.44
2022-08-30T09:15:55.135Z,101816.25
2022-08-30T09:18:42.141Z,101811.81
2022-08-30T09:21:15.371Z,101817.34
2022-08-30T09:23:49.825Z,101827.41
2022-08-30T09:26:29.421Z,101819.03
2022-08-30T09:29:00.018Z,101817.06
2022-08-30T09:31:33.471Z,101824.47
2022-08-30T09:34:03.278Z,101819.00
2022-08-30T09:36:34.244Z,101819.28
2022-08-30T09:39:03.929Z,101820.97
2022-08-30T09:41:38.321Z,101822.53
2022-08-30T09:44:09.856Z,101820.78
2022-08-30T09:46:47.076Z,101829.28
2022-08-30T09:49:33.391Z,101831.97
2022-08-30T09:52:11.845Z,101838.59
2022-08-30T09:54:45.644Z,101835.34
2022-08-30T09:57:19.381Z,101831.84
2022-08-30T09:59:51.750Z,101835.31
2022-08-30T10:02:38.092Z,101831.03
2022-08-30T10:05:11.899Z,101833.38
2022-08-30T10:07:46.058Z,101829.78
2022-08-30T10:10:18.239Z,101841.53
2022-08-30T10:12:54.430Z,101829.91
2022-08-30T10:15:26.879Z,101833.03
2022-08-30T10:18:00.284Z,101836.91
2022-08-30T10:20:31.157Z,101836.81
2022-08-30T10:23:04.531Z,101834.13
2022-08-30T10:25:36.023Z,101829.53
2022-08-30T10:28:08.359Z,101825.16
2022-08-30T10:30:40.050Z,101823.94
2022-08-30T10:33:11.712Z,101824.19
2022-08-30T10:35:41.735Z,101826.41
2022-08-30T10:38:16.238Z,101825.00
2022-08-30T10:41:05.774Z,101826.72
2022-08-30T10:43:38.957Z,101821.34
2022-08-30T10:46:12.571Z,101825.53
2022-08-30T10:48:47.384Z,101828.75
2022-08-30T10:51:18.208Z,101823.97
2022-08-30T10:53:49.500Z,101816.56
2022-08-30T10:56:20.440Z,101820.53
2022-08-30T10:58:48.620Z,101813.09
2022-08-30T11:01:47.868Z,101818.75
2022-08-30T11:04:30.808Z,101815.97
2022-08-30T11:07:09.693Z,101802.56
2022-08-30T11:09:45.061Z,101814.94
2022-08-30T11:12:34.801Z,101809.47
2022-08-30T11:15:14.225Z,101807.31
2022-08-30T11:17:47.759Z,101803.53
2022-08-30T11:20:34.600Z,101805.16
2022-08-30T11:23:27.303Z,101803.66
2022-08-30T11:26:01.707Z,101805.75
2022-08-30T11:29:05.850Z,101802.91
2022-08-30T11:31:42.396Z,101795.81
2022-08-30T11:34:11.131Z,101790.09
2022-08-30T11:37:09.810Z,101795.44
2022-08-30T11:40:06.842Z,101786.88
2022-08-30T11:42:44.479Z,101785.81
2022-08-30T11:45:55.569Z,101796.31
2022-08-30T11:48:54.578Z,101788.41
2022-08-30T11:51:33.317Z,101791.06
2022-08-30T11:54:12.499Z,101795.38
2022-08-30T11:56:48.256Z,101791.41
2022-08-30T11:59:23.712Z,101789.00
2022-08-30T12:01:52.387Z,101786.41
2022-08-30T12:04:37.307Z,101784.00
2022-08-30T12:07:07.695Z,101791.06
2022-08-30T12:10:05.940Z,101791.16
2022-08-30T12:12:55.980Z,101784.81
2022-08-30T12:15:50.433Z,101785.16
2022-08-30T12:18:28.177Z,101789.81
2022-08-30T12:21:02.964Z,101784.75
2022-08-30T12:23:44.441Z,101782.41
2022-08-30T12:26:20.258Z,101790.06
2022-08-30T12:28:50.830Z,101789.38
2022-08-30T12:31:21.984Z,101781.44
2022-08-30T12:33:54.703Z,101782.72
2022-08-30T12:36:34.120Z,101788.94
2022-08-30T12:39:10.901Z,101779.69
2022-08-30T12:41:43.617Z,101775.88
2022-08-30T12:44:15.310Z,101777.47
2022-08-30T12:46:44.640Z,101772.63
2022-08-30T12:49:14.496Z,101776.78
2022-08-30T12:51:43.481Z,101775.66
2022-08-30T12:54:17.688Z,101772.44
2022-08-30T12:56:54.593Z,101764.16
2022-08-30T12:59:54.029Z,101762.69
2022-08-30T13:02:25.307Z,101759.91
2022-08-30T13:04:54.689Z,101765.09
2022-08-30T13:07:30.298Z,101763.94
2022-08-30T13:10:14.293Z,101752.13
2022-08-30T13:12:59.163Z,101755.31
2022-08-30T13:15:30.016Z,101753.50
2022-08-30T13:18:21.657Z,101761.06
2022-08-30T13:21:11.945Z,101758.88
2022-08-30T13:23:40.393Z,101758.88
2022-08-30T13:26:10.013Z,101761.81
2022-08-30T13:28:51.124Z,101756.94
2022-08-30T13:31:18.860Z,101761.81
2022-08-30T13:33:47.216Z,101762.59
2022-08-30T13:36:15.252Z,101758.28
2022-08-30T13:38:43.187Z,101751.22
2022-08-30T13:41:10.980Z,101753.00
2022-08-30T13:46:28.368Z,101749.84
2022-08-30T13:49:00.557Z,101757.16
2022-08-30T13:51:29.531Z,101766.94
2022-08-30T13:53:58.756Z,101752.25
2022-08-30T13:56:27.682Z,101753.69
2022-08-30T13:58:59.186Z,101754.66
2022-08-30T14:01:29.576Z,101751.16
2022-08-30T14:04:13.553Z,101753.84
2022-08-30T14:09:31.445Z,101744.53
2022-08-30T14:11:59.283Z,101745.88
2022-08-30T14:14:42.896Z,101739.50
2022-08-30T14:17:12.673Z,101732.69
2022-08-30T14:19:40.627Z,101739.16
2022-08-30T14:22:08.451Z,101744.09
2022-08-30T14:24:36.223Z,101747.44
2022-08-30T14:27:04.915Z,101751.66
2022-08-30T14:29:32.663Z,101751.06
2022-08-30T14:32:00.487Z,101753.50
2022-08-30T14:34:30.933Z,101755.81
2022-08-30T14:37:00.560Z,101752.22
2022-08-30T14:39:32.427Z,101755.66
2022-08-30T14:42:04.394Z,101744.09
2022-08-30T14:44:54.834Z,101750.41
2022-08-30T14:47:28.617Z,101746.84
2022-08-30T14:50:02.979Z,101752.19
2022-08-30T14:52:31.685Z,101750.06
2022-08-30T14:55:05.219Z,101750.34
2022-08-30T14:57:38.173Z,101746.97
2022-08-30T15:00:08.439Z,101756.88
2022-08-30T15:02:36.346Z,101744.03
2022-08-30T15:05:06.981Z,101751.22
2022-08-30T15:07:36.286Z,101743.72
2022-08-30T15:10:06.435Z,101749.38
2022-08-30T15:12:34.377Z,101752.41
2022-08-30T15:15:02.612Z,101747.66
2022-08-30T15:17:30.684Z,101754.38
2022-08-30T15:19:58.523Z,101745.72
2022-08-30T15:22:27.569Z,101749.22
2022-08-30T15:24:55.667Z,101746.91
2022-08-30T15:27:23.816Z,101752.25
2022-08-30T15:29:51.516Z,101746.19
2022-08-30T15:32:19.236Z,101753.16
2022-08-30T15:34:55.740Z,101752.09
2022-08-30T15:37:23.871Z,101746.53
2022-08-30T15:39:53.988Z,101741.44
2022-08-30T15:42:21.809Z,101738.03
2022-08-30T15:44:51.719Z,101739.66
2022-08-30T15:47:21.401Z,101736.69
2022-08-30T15:49:55.940Z,101738.31
2022-08-30T15:52:23.749Z,101728.03
2022-08-30T15:54:51.459Z,101725.44
2022-08-30T15:57:20.750Z,101723.81
2022-08-30T15:59:48.461Z,101724.16
2022-08-30T16:02:16.777Z,101729.97
2022-08-30T16:04:44.751Z,101726.41
2022-08-30T16:07:14.404Z,101729.88
2022-08-30T16:09:42.135Z,101730.44
2022-08-30T16:12:10.238Z,101729.28
2022-08-30T16:14:39.290Z,101720.13
2022-08-30T16:17:13.121Z,101719.69
2022-08-30T16:19:40.836Z,101720.19
2022-08-30T16:22:11.164Z,101723.00
2022-08-30T16:24:38.884Z,101717.84
2022-08-30T16:27:08.734Z,101725.31
2022-08-30T16:29:36.702Z,101728.69
2022-08-30T16:32:06.175Z,101721.06
2022-08-30T16:34:33.893Z,101728.66
2022-08-30T16:37:03.795Z,101728.66
2022-08-30T16:39:31.547Z,101729.13
2022-08-30T16:42:04.366Z,101728.31
2022-08-30T16:44:34.797Z,101730.09
2022-08-30T16:47:04.677Z,101730.44
2022-08-30T16:49:33.952Z,101728.44
2022-08-30T16:52:05.261Z,101733.69
2022-08-30T16:54:33.219Z,101726.47
2022-08-30T16:57:01.120Z,101734.06
2022-08-30T16:59:28.860Z,101732.34
2022-08-30T17:01:56.727Z,101735.50
2022-08-30T17:04:24.492Z,101733.31
2022-08-30T17:06:54.334Z,101734.13
2022-08-30T17:09:22.388Z,101728.53
2022-08-30T17:11:50.394Z,101731.66
2022-08-30T17:14:27.552Z,101731.97
2022-08-30T17:16:56.903Z,101738.41
2022-08-30T17:19:26.748Z,101733.00
2022-08-30T17:21:56.575Z,101736.44
2022-08-30T17:24:26.211Z,101739.13
2022-08-30T17:26:54.391Z,101740.19
2022-08-30T17:29:22.144Z,101750.06
2022-08-30T17:31:50.839Z,101741.81
2022-08-30T17:34:20.994Z,101742.66
2022-08-30T17:36:50.964Z,101741.09
2022-08-30T17:39:20.223Z,101745.09
2022-08-30T17:41:50.541Z,101747.63
2022-08-30T17:44:19.652Z,101744.59
2022-08-30T17:46:47.600Z,101758.91
2022-08-30T17:49:15.440Z,101759.00
2022-08-30T17:51:44.277Z,101755.25
2022-08-30T17:54:13.021Z,101762.56
2022-08-30T17:56:43.953Z,101764.78
2022-08-30T17:59:12.453Z,101772.47
2022-08-30T18:01:41.702Z,101770.31
2022-08-30T18:04:10.957Z,101776.50
2022-08-30T18:06:39.949Z,101775.31
2022-08-30T18:09:09.104Z,101781.88
2022-08-30T18:11:40.391Z,101781.13
2022-08-30T18:14:11.409Z,101786.81
2022-08-30T18:19:30.226Z,101794.22
2022-08-30T18:21:58.449Z,101801.59
2022-08-30T18:24:26.521Z,101806.66
2022-08-30T18:26:54.824Z,101812.88
2022-08-30T18:29:30.244Z,101820.78
2022-08-30T18:31:59.716Z,101820.75
2022-08-30T18:34:27.830Z,101819.75
2022-08-30T18:36:56.142Z,101824.91
2022-08-30T18:39:24.177Z,101824.38
2022-08-30T18:41:54.719Z,101821.66
2022-08-30T18:44:29.067Z,101834.97
2022-08-30T18:46:57.538Z,101838.53
2022-08-30T18:49:25.599Z,101830.66
2022-08-30T18:51:53.616Z,101831.19
2022-08-30T18:54:21.339Z,101835.84
2022-08-30T18:56:50.750Z,101831.47
2022-08-30T18:59:20.188Z,101832.22
2022-08-30T19:01:49.880Z,101829.81
2022-08-30T19:04:22.472Z,101836.94
2022-08-30T19:06:58.055Z,101845.63
2022-08-30T19:09:26.835Z,101842.91
2022-08-30T19:11:54.706Z,101840.47
2022-08-30T19:14:22.428Z,101840.19
2022-08-30T19:16:53.573Z,101844.28
2022-08-30T19:19:21.497Z,101838.56
2022-08-30T19:21:49.297Z,101841.56
2022-08-30T19:24:18.816Z,101848.38
2022-08-30T19:26:46.787Z,101845.09
2022-08-30T19:29:15.288Z,101842.66
2022-08-30T19:31:44.604Z,101834.47
2022-08-30T19:34:14.563Z,101843.47
2022-08-30T19:36:42.271Z,101839.91
2022-08-30T19:39:13.897Z,101840.13
2022-08-30T19:41:41.724Z,101851.94
2022-08-30T19:44:09.736Z,101849.97
2022-08-30T19:46:37.681Z,101855.75
2022-08-30T19:49:08.431Z,101855.69
2022-08-30T19:51:38.622Z,101857.66
2022-08-30T19:54:14.812Z,101848.66
2022-08-30T19:56:42.499Z,101849.19
2022-08-30T19:59:10.216Z,101837.69
2022-08-30T20:01:38.383Z,101846.22
2022-08-30T20:04:11.072Z,101842.06
2022-08-30T20:06:41.855Z,101847.56
2022-08-30T20:09:10.862Z,101833.09
2022-08-30T20:11:38.820Z,101838.50
2022-08-30T20:14:07.479Z,101842.38
2022-08-30T20:16:37.170Z,101847.31
2022-08-30T20:19:06.234Z,101850.28
2022-08-30T20:21:34.028Z,101844.00
2022-08-30T20:24:09.817Z,101847.22
2022-08-30T20:24:27.145Z,101788.63
2022-08-30T20:26:38.325Z,101844.50
2022-08-30T20:29:07.511Z,101845.88
2022-08-30T20:31:35.993Z,101836.31
2022-08-30T20:34:04.788Z,101839.78
2022-08-30T20:36:33.512Z,101851.31
2022-08-30T20:39:03.056Z,101851.88
2022-08-30T20:41:32.160Z,101847.50
2022-08-30T20:44:03.892Z,101840.09
2022-08-30T20:46:34.161Z,101852.22
2022-08-30T20:49:05.284Z,101853.44
2022-08-30T20:51:32.951Z,101848.28
2022-08-30T20:54:04.532Z,101853.81
2022-08-30T20:56:34.336Z,101854.59
2022-08-30T20:59:03.465Z,101848.78
2022-08-30T21:01:31.778Z,101857.59
2022-08-30T21:04:05.031Z,101849.38
2022-08-30T21:06:37.792Z,101855.56
2022-08-30T21:09:06.780Z,101850.69
2022-08-30T21:11:37.495Z,101856.25
2022-08-30T21:14:05.988Z,101848.19
2022-08-30T21:16:34.572Z,101855.25
2022-08-30T21:19:04.096Z,101856.91
2022-08-30T21:21:32.688Z,101862.50
2022-08-30T21:24:03.071Z,101871.97
2022-08-30T21:26:31.333Z,101864.28
2022-08-30T21:29:00.424Z,101869.22
2022-08-30T21:31:30.173Z,101872.06
2022-08-30T21:33:58.101Z,101884.13
2022-08-30T21:36:45.289Z,101879.72
2022-08-30T21:39:17.846Z,101888.38
2022-08-30T21:41:45.828Z,101892.81
2022-08-30T21:44:16.770Z,101883.47
2022-08-30T21:46:45.296Z,101888.91
2022-08-30T21:49:14.980Z,101892.16
2022-08-30T21:51:44.496Z,101896.56
2022-08-30T21:54:14.413Z,101895.84
2022-08-30T21:56:44.074Z,101897.56
2022-08-30T21:59:13.043Z,101903.09
2022-08-30T22:01:44.022Z,101908.19
2022-08-30T22:04:13.756Z,101908.00
2022-08-30T22:06:44.498Z,101898.47
2022-08-30T22:09:14.336Z,101900.84
2022-08-30T22:11:42.478Z,101904.94
2022-08-30T22:14:10.708Z,101902.84
2022-08-30T22:16:40.470Z,101903.22
2022-08-30T22:19:09.976Z,101914.69
2022-08-30T22:21:41.769Z,101914.47
2022-08-30T22:24:10.236Z,101911.19
2022-08-30T22:26:38.542Z,101906.53
2022-08-30T22:29:07.760Z,101908.22
2022-08-30T22:31:36.742Z,101906.78
2022-08-30T22:34:10.956Z,101907.06
2022-08-30T22:36:39.312Z,101903.50
2022-08-30T22:39:08.603Z,101909.78
2022-08-30T22:41:37.045Z,101909.31
2022-08-30T22:44:05.211Z,101912.53
2022-08-30T22:46:34.822Z,101913.84
2022-08-30T22:49:03.421Z,101915.41
2022-08-30T22:51:32.922Z,101924.50
2022-08-30T22:54:03.056Z,101930.25
2022-08-30T22:56:31.010Z,101924.81
2022-08-30T22:58:58.769Z,101921.84
2022-08-30T23:01:28.318Z,101923.75
2022-08-30T23:03:56.389Z,101935.63
2022-08-30T23:06:24.313Z,101932.53
2022-08-30T23:08:53.423Z,101934.53
2022-08-30T23:11:21.257Z,101934.84
2022-08-30T23:13:49.292Z,101939.06
2022-08-30T23:16:17.363Z,101930.84
2022-08-30T23:18:45.849Z,101921.19
2022-08-30T23:21:15.283Z,101928.25
2022-08-30T23:24:02.513Z,101937.72
2022-08-30T23:26:49.515Z,101942.88
2022-08-30T23:29:35.071Z,101946.41
2022-08-30T23:32:21.824Z,101935.97
2022-08-30T23:35:07.244Z,101939.72
2022-08-30T23:37:53.379Z,101939.59
2022-08-30T23:40:39.140Z,101934.13
2022-08-30T23:43:26.248Z,101933.44
2022-08-30T23:46:11.739Z,101926.97
2022-08-30T23:49:04.601Z,101925.41
2022-08-30T23:51:49.755Z,101923.97
2022-08-30T23:54:35.304Z,101920.50
2022-08-30T23:57:20.723Z,101919.38
